Pindi Bhattian Weather



Pindi Bhattian's Current Weather

Temprature 20.31o light rain

light rain

Rain: 0 %

Min Temprature20.31o
Max Temprature20.31o
Humidity85
Wind Speed3.24 m/h
Sun Rise05:02:15
Sun Set19:07:24
Current Time: 01-Jun-2023 04:53:23
Lat/Lon: 31.8978, 73.273




Pindi Bhattian's Geo Location



Pindi Bhattian's Weather Forecast

Time Overall Temp Min Temp Max Temp Humidity Wind Speed Rain
01-Jun-2023 (Thu)
05:00:00 overcast clouds 20.310 20.310 20.310 85 3.24 m/h 0 %
08:00:00 overcast clouds 21.280 21.280 23.220 80 1.65 m/h 0 %
11:00:00 overcast clouds 25.930 25.930 28.740 61 0.39 m/h 0 %
14:00:00 few clouds 32.420 32.420 32.420 34 1.24 m/h 0 %
17:00:00 scattered clouds 28.640 28.640 28.640 42 5.02 m/h 0 %
20:00:00 scattered clouds 26.280 26.280 26.280 51 2.46 m/h 0 %
23:00:00 broken clouds 22.950 22.950 22.950 66 4.9 m/h 0 %
02-Jun-2023 (Fri)
02:00:00 broken clouds 22.630 22.630 22.630 67 2.29 m/h 0 %
05:00:00 scattered clouds 21.880 21.880 21.880 73 1.64 m/h 0 %
08:00:00 clear sky 25.790 25.790 25.790 53 1.45 m/h 0 %
11:00:00 clear sky 31.200 31.200 31.200 33 2.11 m/h 0 %
14:00:00 clear sky 33.960 33.960 33.960 26 2.14 m/h 0 %
17:00:00 clear sky 34.370 34.370 34.370 23 2.25 m/h 0 %
20:00:00 clear sky 31.200 31.200 31.200 30 2.88 m/h 0 %
23:00:00 clear sky 29.030 29.030 29.030 36 2.15 m/h 0 %
03-Jun-2023 (Sat)
02:00:00 clear sky 28.000 28.000 28.000 38 0.31 m/h 0 %
05:00:00 clear sky 26.710 26.710 26.710 42 0.61 m/h 0 %
08:00:00 clear sky 31.650 31.650 31.650 30 2.9 m/h 0 %
11:00:00 clear sky 35.560 35.560 35.560 22 3.01 m/h 0 %
14:00:00 clear sky 38.080 38.080 38.080 18 1.87 m/h 0 %
17:00:00 clear sky 38.110 38.110 38.110 17 1.77 m/h 0 %
20:00:00 clear sky 34.320 34.320 34.320 23 2.83 m/h 0 %
23:00:00 clear sky 32.180 32.180 32.180 28 1.99 m/h 0 %
04-Jun-2023 (Sun)
02:00:00 clear sky 30.610 30.610 30.610 31 1.81 m/h 0 %
05:00:00 clear sky 29.530 29.530 29.530 33 0.46 m/h 0 %
08:00:00 few clouds 34.400 34.400 34.400 25 1.48 m/h 0 %
11:00:00 few clouds 39.040 39.040 39.040 17 1.58 m/h 0 %
14:00:00 clear sky 40.930 40.930 40.930 14 1.82 m/h 0 %
17:00:00 clear sky 40.970 40.970 40.970 14 0.77 m/h 0 %
20:00:00 light rain 36.690 36.690 36.690 22 2.38 m/h 19 %
23:00:00 light rain 31.430 31.430 31.430 36 5.49 m/h 12 %
05-Jun-2023 (Mon)
02:00:00 light rain 29.770 29.770 29.770 41 4.43 m/h 22 %
05:00:00 overcast clouds 28.720 28.720 28.720 44 2.32 m/h 0 %
08:00:00 clear sky 34.180 34.180 34.180 30 0.52 m/h 0 %
11:00:00 clear sky 39.680 39.680 39.680 21 1.37 m/h 0 %
14:00:00 clear sky 42.290 42.290 42.290 17 2.71 m/h 0 %
17:00:00 clear sky 41.360 41.360 41.360 18 5.45 m/h 0 %
20:00:00 few clouds 37.460 37.460 37.460 24 4.35 m/h 0 %
23:00:00 broken clouds 34.840 34.840 34.840 29 6.61 m/h 0 %
06-Jun-2023 (Tue)
02:00:00 broken clouds 31.750 31.750 31.750 29 2.39 m/h 0 %

Famous Cities (61)